Time;durP1;ratioP1;P1;durP2;ratioP2;P2;SDS_P1;SDS_P2;PMS_P1;PMS_P2;Temp;Humidity;BMP_temperature;BMP_pressure;BME280_temperature;BME280_humidity;BME280_pressure;Samples;Min_cycle;Max_cycle;Signal;HPM_P1;HPM_P2
2023/01/12 00:02:20;;;;;;;10.63;6.40;;;-1.60;81.10;;;;;;1905461;75;21528;-44
2023/01/12 00:04:49;;;;;;;9.63;6.95;;;-1.60;81.10;;;;;;1905521;75;21007;-44
2023/01/12 00:07:19;;;;;;;13.50;6.37;;;-1.60;81.00;;;;;;1905417;75;21003;-44
2023/01/12 00:09:48;;;;;;;10.95;6.30;;;-1.60;81.00;;;;;;1905360;75;21012;-44
2023/01/12 00:12:17;;;;;;;9.70;6.85;;;-1.60;81.00;;;;;;1905458;75;21020;-44
2023/01/12 00:14:46;;;;;;;8.33;5.95;;;-1.60;81.00;;;;;;1905409;75;21003;-44
2023/01/12 00:17:17;;;;;;;11.53;6.10;;;-1.60;81.00;;;;;;1905440;75;21032;-44
2023/01/12 00:19:46;;;;;;;10.55;6.60;;;-1.60;80.70;;;;;;1905387;74;21167;-43
2023/01/12 00:22:15;;;;;;;10.30;6.78;;;-1.60;80.90;;;;;;1905371;75;21043;-44
2023/01/12 00:24:46;;;;;;;11.12;5.97;;;-1.70;80.90;;;;;;1905515;74;21039;-45
2023/01/12 00:27:18;;;;;;;13.30;6.33;;;-1.70;81.00;;;;;;1905461;75;20984;-45
2023/01/12 00:29:47;;;;;;;12.35;6.40;;;-1.70;81.10;;;;;;1905425;75;21007;-44
2023/01/12 00:32:18;;;;;;;9.95;5.70;;;-1.70;81.10;;;;;;1905383;75;21028;-43
2023/01/12 00:34:47;;;;;;;10.38;6.67;;;-1.70;81.10;;;;;;1905407;75;21055;-44
2023/01/12 00:37:18;;;;;;;8.08;5.83;;;-1.70;81.10;;;;;;1905442;75;21008;-43
2023/01/12 00:39:47;;;;;;;12.15;6.67;;;-1.70;81.10;;;;;;1905409;75;21466;-43
2023/01/12 00:45:22;;;;;;;11.05;7.50;;;-1.70;81.00;;;;;;1905500;75;21101;-43
2023/01/12 00:47:52;;;;;;;9.80;6.83;;;-1.70;80.60;;;;;;1905439;75;21031;-44
2023/01/12 00:50:21;;;;;;;11.05;5.97;;;-1.90;79.80;;;;;;1905412;75;20996;-44
2023/01/12 00:52:50;;;;;;;13.30;6.50;;;-2.00;80.70;;;;;;1905375;74;21106;-44
2023/01/12 00:55:19;;;;;;;12.68;6.70;;;-2.10;81.10;;;;;;1905480;75;21410;-43
2023/01/12 00:57:48;;;;;;;9.30;6.78;;;-2.10;81.30;;;;;;1905376;75;21020;-43
2023/01/12 01:00:18;;;;;;;12.60;7.75;;;-2.00;81.50;;;;;;1905386;75;21089;-44
2023/01/12 01:02:47;;;;;;;11.63;7.30;;;-2.00;81.40;;;;;;1905342;75;21003;-44
2023/01/12 01:05:19;;;;;;;14.50;6.75;;;-1.90;81.40;;;;;;1905386;74;21520;-43
2023/01/12 01:07:48;;;;;;;12.23;6.78;;;-1.90;81.20;;;;;;1905435;75;21187;-44
2023/01/12 01:10:18;;;;;;;12.00;6.40;;;-1.90;81.30;;;;;;1905491;75;21011;-44
2023/01/12 01:12:46;;;;;;;10.60;7.00;;;-1.80;81.20;;;;;;1905403;75;21007;-44
2023/01/12 01:15:16;;;;;;;14.53;6.17;;;-1.80;81.10;;;;;;1905390;74;21036;-44
2023/01/12 01:17:44;;;;;;;9.73;5.92;;;-1.80;81.10;;;;;;1905382;75;21085;-43
2023/01/12 01:20:14;;;;;;;6.92;5.22;;;-1.80;81.10;;;;;;1905324;75;21036;-45
2023/01/12 01:22:43;;;;;;;11.40;5.87;;;-1.80;81.00;;;;;;1905336;75;21046;-44
2023/01/12 01:25:12;;;;;;;7.87;5.25;;;-1.80;81.10;;;;;;1905501;75;21081;-44
2023/01/12 01:27:41;;;;;;;9.75;5.58;;;-1.80;81.10;;;;;;1905470;75;21039;-43
2023/01/12 01:30:10;;;;;;;9.15;5.65;;;-1.80;80.90;;;;;;1905331;75;21016;-44
2023/01/12 01:32:39;;;;;;;12.65;6.12;;;-1.80;81.00;;;;;;1905473;75;21008;-44
2023/01/12 01:35:09;;;;;;;9.15;6.33;;;-1.80;81.00;;;;;;1905383;75;21407;-44
2023/01/12 01:37:38;;;;;;;9.48;5.45;;;-1.80;80.90;;;;;;1905396;75;21520;-43
2023/01/12 01:40:08;;;;;;;7.72;5.87;;;-1.90;80.90;;;;;;1905354;75;21100;-44
2023/01/12 01:42:38;;;;;;;11.70;5.50;;;-1.90;81.00;;;;;;1905353;75;21015;-44
2023/01/12 01:45:11;;;;;;;8.73;5.97;;;-1.90;81.00;;;;;;1905335;75;21007;-44
2023/01/12 01:47:43;;;;;;;8.40;6.03;;;-1.90;80.90;;;;;;1905395;75;21012;-44
2023/01/12 01:50:20;;;;;;;8.58;4.62;;;-1.90;80.90;;;;;;1904485;74;21101;-44
2023/01/12 01:52:52;;;;;;;12.90;6.42;;;-1.90;80.90;;;;;;1905490;74;21063;-43
2023/01/12 01:55:24;;;;;;;8.18;5.65;;;-1.90;81.00;;;;;;1905369;75;21024;-44
2023/01/12 01:57:59;;;;;;;18.62;6.65;;;-1.90;81.10;;;;;;1904290;74;21515;-44
2023/01/12 02:00:28;;;;;;;10.63;6.47;;;-1.90;81.20;;;;;;1904485;74;20987;-44
2023/01/12 02:02:59;;;;;;;17.07;6.37;;;-1.90;81.10;;;;;;1905340;75;21113;-43
2023/01/12 02:05:28;;;;;;;10.85;5.80;;;-1.90;81.00;;;;;;1905257;74;21089;-44
2023/01/12 02:08:00;;;;;;;12.20;6.28;;;-1.90;80.90;;;;;;1905211;75;21093;-43
2023/01/12 02:10:29;;;;;;;6.97;5.58;;;-1.90;80.90;;;;;;1905505;75;21082;-44
2023/01/12 02:18:42;;;;;;;8.43;6.08;;;-1.90;81.10;;;;;;1864096;74;21094;-43
2023/01/12 02:21:47;;;;;;;7.17;5.42;;;-1.90;81.00;;;;;;1905681;74;21023;-44
2023/01/12 02:24:51;;;;;;;9.28;5.58;;;-2.00;81.10;;;;;;1905802;74;21011;-43
2023/01/12 02:27:42;;;;;;;7.65;5.35;;;-2.00;81.00;;;;;;1905599;75;21089;-46
2023/01/12 02:30:28;;;;;;;8.30;5.53;;;-2.00;81.10;;;;;;1905575;74;21012;-46
2023/01/12 02:33:15;;;;;;;11.75;5.60;;;-2.00;81.10;;;;;;1904686;74;21023;-45
2023/01/12 02:35:47;;;;;;;11.00;7.47;;;-1.90;80.90;;;;;;1905085;74;21085;-44
2023/01/12 02:38:35;;;;;;;7.55;5.28;;;-2.00;80.70;;;;;;1905215;74;21061;-43
2023/01/12 02:41:16;;;;;;;8.73;6.25;;;-2.00;80.80;;;;;;1905580;74;21039;-44
2023/01/12 02:43:45;;;;;;;13.78;6.45;;;-2.10;81.00;;;;;;1905522;75;21051;-44
2023/01/12 02:46:23;;;;;;;17.50;5.87;;;-2.10;80.90;;;;;;1905639;75;21109;-43
2023/01/12 02:48:57;;;;;;;13.32;6.45;;;-2.10;81.10;;;;;;1905534;74;21047;-44
2023/01/12 02:51:38;;;;;;;9.33;6.72;;;-2.10;81.00;;;;;;1905622;74;21023;-44
2023/01/12 02:54:10;;;;;;;39.85;6.87;;;-2.10;81.00;;;;;;1919702;74;21051;-44
2023/01/12 02:56:47;;;;;;;7.08;6.40;;;-2.10;81.60;;;;;;1924937;74;21007;-43
2023/01/12 02:59:28;;;;;;;15.23;6.97;;;-2.10;80.80;;;;;;1924804;74;21096;-43
2023/01/12 03:02:15;;;;;;;8.50;5.97;;;-2.10;80.80;;;;;;1924815;74;21084;-44
2023/01/12 03:04:45;;;;;;;10.35;5.78;;;-2.20;80.80;;;;;;1924853;74;21121;-44
2023/01/12 03:07:25;;;;;;;7.78;6.35;;;-2.20;80.90;;;;;;1924821;74;21422;-44
2023/01/12 03:09:57;;;;;;;20.77;7.70;;;-2.20;81.00;;;;;;1924812;74;21026;-44
2023/01/12 03:12:29;;;;;;;12.95;6.47;;;-2.20;80.90;;;;;;1924799;74;21034;-43
2023/01/12 03:15:01;;;;;;;14.78;6.78;;;-2.20;80.80;;;;;;1923857;74;21038;-44
2023/01/12 03:17:42;;;;;;;12.33;6.65;;;-2.20;80.80;;;;;;1924848;74;20998;-44
2023/01/12 03:20:14;;;;;;;10.32;5.78;;;-2.20;80.90;;;;;;1923534;74;21031;-44
2023/01/12 03:22:44;;;;;;;9.35;6.65;;;-2.20;81.00;;;;;;1924081;74;21209;-44
2023/01/12 03:25:15;;;;;;;13.15;6.87;;;-2.20;81.10;;;;;;1924733;74;21062;-44
2023/01/12 03:27:47;;;;;;;18.77;7.78;;;-2.20;81.00;;;;;;1924667;74;21069;-43
2023/01/12 03:30:21;;;;;;;9.85;7.12;;;-2.10;81.10;;;;;;1924737;74;21007;-44
2023/01/12 03:32:51;;;;;;;20.75;7.62;;;-2.10;81.00;;;;;;1924817;74;21108;-44
2023/01/12 03:35:23;;;;;;;10.35;6.50;;;-2.10;81.00;;;;;;1924740;74;21077;-44
2023/01/12 03:38:13;;;;;;;13.93;6.65;;;-2.10;81.30;;;;;;1924848;74;21010;-44
2023/01/12 03:40:45;;;;;;;10.80;6.25;;;-2.10;80.80;;;;;;1924404;74;21104;-44
2023/01/12 03:43:16;;;;;;;13.05;6.53;;;-2.20;80.80;;;;;;1924755;74;21144;-44
2023/01/12 03:45:51;;;;;;;10.85;6.60;;;-2.20;80.90;;;;;;1924801;74;21015;-44
2023/01/12 03:48:23;;;;;;;11.85;6.67;;;-2.20;81.00;;;;;;1924892;74;21037;-44
2023/01/12 03:51:07;;;;;;;13.18;6.80;;;-2.10;81.00;;;;;;1924798;74;21015;-45
2023/01/12 03:53:38;;;;;;;6.97;5.60;;;-2.10;80.90;;;;;;1924561;74;21066;-44
2023/01/12 03:56:10;;;;;;;12.55;5.95;;;-2.10;81.00;;;;;;1924885;74;21054;-44
2023/01/12 03:58:40;;;;;;;16.00;7.15;;;-2.10;81.50;;;;;;1924753;74;21039;-44
2023/01/12 04:01:09;;;;;;;17.27;7.03;;;-2.10;81.10;;;;;;1924794;74;21068;-47
2023/01/12 04:03:38;;;;;;;8.70;6.28;;;-2.10;81.10;;;;;;1924829;74;21078;-44
2023/01/12 04:06:07;;;;;;;12.10;6.65;;;-2.10;81.00;;;;;;1924783;74;21067;-45
2023/01/12 04:08:36;;;;;;;11.65;6.15;;;-2.10;80.90;;;;;;1924857;74;20983;-43
2023/01/12 04:13:54;;;;;;;10.13;5.50;;;-2.10;81.00;;;;;;1924774;74;21062;-43
2023/01/12 04:16:23;;;;;;;9.33;7.00;;;-2.10;81.10;;;;;;1924770;74;21507;-44
2023/01/12 04:18:52;;;;;;;10.60;6.05;;;-2.10;81.00;;;;;;1924695;74;21038;-45
2023/01/12 04:24:09;;;;;;;20.35;8.15;;;-2.10;81.10;;;;;;1924658;74;21077;-43
2023/01/12 04:26:38;;;;;;;16.27;8.35;;;-2.10;81.20;;;;;;1924653;74;21084;-43
2023/01/12 04:29:07;;;;;;;12.30;6.67;;;-2.10;81.10;;;;;;1924627;74;20983;-44
2023/01/12 04:31:36;;;;;;;14.40;7.10;;;-2.10;81.10;;;;;;1924676;74;21039;-44
2023/01/12 04:34:05;;;;;;;11.28;6.50;;;-2.10;81.10;;;;;;1924636;74;21398;-43
2023/01/12 04:36:34;;;;;;;13.60;6.70;;;-2.10;81.10;;;;;;1924672;74;21075;-44
2023/01/12 04:39:03;;;;;;;11.50;6.92;;;-2.10;81.20;;;;;;1924655;74;21099;-44
2023/01/12 04:41:32;;;;;;;14.35;6.87;;;-2.10;81.20;;;;;;1924739;74;21092;-45
2023/01/12 04:44:01;;;;;;;11.63;6.42;;;-2.10;81.10;;;;;;1924616;74;21080;-44
2023/01/12 04:46:30;;;;;;;14.10;6.72;;;-2.10;81.10;;;;;;1924736;74;21050;-43
2023/01/12 04:49:00;;;;;;;14.93;7.67;;;-2.10;81.10;;;;;;1924778;74;21039;-44
2023/01/12 04:51:28;;;;;;;13.45;6.90;;;-2.10;81.10;;;;;;1924737;74;21015;-44
2023/01/12 04:53:58;;;;;;;13.25;6.85;;;-2.10;81.10;;;;;;1920954;74;21052;-43
2023/01/12 04:56:27;;;;;;;17.02;7.67;;;-2.10;81.20;;;;;;1905411;75;21015;-44
2023/01/12 04:59:01;;;;;;;19.42;7.67;;;-2.10;81.10;;;;;;1905423;75;21061;-43
2023/01/12 05:01:29;;;;;;;15.05;8.78;;;-2.10;81.10;;;;;;1904591;74;21004;-44
2023/01/12 05:04:01;;;;;;;24.12;7.33;;;-2.10;81.10;;;;;;1905420;74;21003;-44
2023/01/12 05:06:30;;;;;;;20.45;7.85;;;-2.10;80.90;;;;;;1905364;75;21035;-45
2023/01/12 05:11:46;;;;;;;19.05;7.22;;;-2.10;81.20;;;;;;1905301;75;21035;-44
2023/01/12 05:14:15;;;;;;;21.65;8.00;;;-2.10;81.10;;;;;;1905272;75;21462;-48
2023/01/12 05:16:45;;;;;;;18.12;7.40;;;-2.10;81.60;;;;;;1905378;75;21094;-50
2023/01/12 05:19:13;;;;;;;24.12;9.95;;;-2.10;81.00;;;;;;1905376;75;21120;-46
2023/01/12 05:21:42;;;;;;;20.00;9.80;;;-2.10;81.20;;;;;;1905329;75;21081;-45
2023/01/12 05:24:12;;;;;;;38.28;12.03;;;-2.10;81.20;;;;;;1905245;75;21066;-46
2023/01/12 05:26:40;;;;;;;22.98;11.25;;;-2.00;81.30;;;;;;1905412;75;21003;-46
2023/01/12 05:29:11;;;;;;;45.73;16.05;;;-2.00;81.20;;;;;;1905351;75;21035;-47
2023/01/12 05:31:40;;;;;;;32.20;12.30;;;-2.00;81.20;;;;;;1905535;75;21083;-46
2023/01/12 05:34:09;;;;;;;28.50;12.73;;;-2.00;81.00;;;;;;1905271;75;21113;-46
2023/01/12 05:36:38;;;;;;;27.15;13.50;;;-2.00;81.00;;;;;;1905268;75;21025;-46
2023/01/12 05:39:07;;;;;;;42.17;13.68;;;-2.00;81.00;;;;;;1905278;75;21048;-46
2023/01/12 05:43:48;;;;;;;31.30;12.45;;;-1.90;80.90;;;;;;1905472;75;21039;-43
2023/01/12 05:44:07;;;;;;;26.57;11.28;;;-1.90;81.00;;;;;;1903025;75;21039;-45
2023/01/12 05:46:39;;;;;;;28.45;12.20;;;-1.90;81.00;;;;;;1905248;75;21028;-46
2023/01/12 05:49:09;;;;;;;23.77;12.00;;;-1.90;81.00;;;;;;1905348;74;21103;-43
2023/01/12 05:51:38;;;;;;;36.85;14.13;;;-1.90;80.80;;;;;;1905515;75;21055;-46
2023/01/12 05:54:07;;;;;;;28.25;12.75;;;-1.90;80.70;;;;;;1905237;75;21003;-46
2023/01/12 05:56:36;;;;;;;42.62;12.82;;;-1.90;80.80;;;;;;1905418;75;21053;-44
2023/01/12 05:59:05;;;;;;;26.95;10.80;;;-1.90;80.90;;;;;;1905262;74;21082;-45
2023/01/12 06:01:35;;;;;;;34.08;12.90;;;-1.80;81.00;;;;;;1905160;75;21497;-46
2023/01/12 06:04:04;;;;;;;24.98;11.00;;;-1.80;81.00;;;;;;1905236;74;20983;-43
2023/01/12 06:06:33;;;;;;;40.35;13.25;;;-1.70;81.00;;;;;;1905158;75;21078;-46
2023/01/12 06:09:02;;;;;;;37.10;12.85;;;-1.60;80.90;;;;;;1905160;75;21023;-46
2023/01/12 06:14:18;;;;;;;35.70;11.93;;;-1.60;80.90;;;;;;1905171;75;21043;-45
2023/01/12 06:16:47;;;;;;;25.25;13.25;;;-1.50;80.60;;;;;;1905192;75;21105;-45
2023/01/12 06:19:17;;;;;;;23.92;13.83;;;-1.50;80.80;;;;;;1905187;75;21474;-45
2023/01/12 06:21:46;;;;;;;41.10;14.38;;;-1.50;80.70;;;;;;1905139;75;21039;-45
2023/01/12 06:24:15;;;;;;;27.70;10.80;;;-1.40;80.80;;;;;;1905139;75;21087;-45
2023/01/12 06:26:45;;;;;;;36.25;12.58;;;-1.40;81.00;;;;;;1905164;75;20984;-45
2023/01/12 06:29:14;;;;;;;25.95;13.35;;;-1.30;81.00;;;;;;1905149;75;21015;-45
2023/01/12 06:31:43;;;;;;;29.20;12.95;;;-1.30;81.00;;;;;;1905191;75;21004;-45
2023/01/12 06:34:12;;;;;;;33.80;14.15;;;-1.30;80.90;;;;;;1905222;75;21039;-45
2023/01/12 06:36:40;;;;;;;23.05;12.95;;;-1.20;80.80;;;;;;1905306;75;20983;-45
2023/01/12 06:39:11;;;;;;;28.02;13.05;;;-1.20;80.70;;;;;;1905385;74;21008;-45
2023/01/12 06:44:27;;;;;;;22.05;12.20;;;-1.10;80.70;;;;;;1905292;74;21039;-46
2023/01/12 06:46:56;;;;;;;21.50;11.43;;;-1.10;80.80;;;;;;1905279;75;21089;-45
2023/01/12 06:49:25;;;;;;;39.53;14.05;;;-1.10;80.80;;;;;;1905241;75;21534;-45
2023/01/12 06:51:54;;;;;;;25.57;12.30;;;-1.00;80.90;;;;;;1905309;75;21000;-45
2023/01/12 06:54:23;;;;;;;22.35;12.00;;;-1.00;80.90;;;;;;1905317;75;21003;-45
2023/01/12 06:56:54;;;;;;;33.25;12.68;;;-0.90;81.10;;;;;;1905437;74;21059;-45
2023/01/12 06:59:23;;;;;;;19.65;10.43;;;-0.80;81.00;;;;;;1905397;75;21097;-45
2023/01/12 07:01:52;;;;;;;19.70;10.50;;;-0.80;80.60;;;;;;1905360;75;21035;-46
2023/01/12 07:04:21;;;;;;;16.25;10.40;;;-0.80;80.10;;;;;;1905482;75;21020;-45
2023/01/12 07:06:51;;;;;;;16.02;10.45;;;-0.90;80.20;;;;;;1905391;75;21019;-45
2023/01/12 07:09:21;;;;;;;17.42;9.80;;;-0.90;80.00;;;;;;1905393;75;21035;-46
2023/01/12 07:11:50;;;;;;;30.45;13.65;;;-1.00;80.50;;;;;;1905391;75;20984;-45
2023/01/12 07:14:19;;;;;;;18.20;10.70;;;-1.00;80.90;;;;;;1905355;75;21512;-45
2023/01/12 07:16:48;;;;;;;16.77;11.05;;;-1.10;80.60;;;;;;1905383;75;21109;-45
2023/01/12 07:19:17;;;;;;;17.75;11.12;;;-1.10;80.80;;;;;;1905374;75;21160;-45
2023/01/12 07:21:47;;;;;;;21.68;12.98;;;-1.10;81.20;;;;;;1905334;75;21470;-45
2023/01/12 07:24:16;;;;;;;22.40;13.80;;;-1.00;81.70;;;;;;1905402;74;21003;-45
2023/01/12 07:26:46;;;;;;;16.48;12.13;;;-0.90;81.80;;;;;;1905411;75;21055;-45
2023/01/12 07:29:15;;;;;;;21.73;13.95;;;-0.80;81.60;;;;;;1905328;75;21083;-46
2023/01/12 07:31:44;;;;;;;32.42;20.30;;;-0.60;81.30;;;;;;1905394;75;21020;-45
2023/01/12 07:34:13;;;;;;;28.00;16.10;;;-0.60;81.00;;;;;;1905316;74;21019;-45
2023/01/12 07:36:42;;;;;;;37.48;16.75;;;-0.60;81.20;;;;;;1905244;75;21105;-47
2023/01/12 07:39:11;;;;;;;32.42;15.95;;;-0.50;82.00;;;;;;1898676;75;21098;-46
2023/01/12 07:44:27;;;;;;;23.02;13.95;;;-0.50;82.50;;;;;;1889776;75;21020;-45
2023/01/12 07:46:58;;;;;;;24.05;14.98;;;-0.40;81.90;;;;;;1886208;75;21470;-46
2023/01/12 07:49:27;;;;;;;16.95;10.32;;;-0.30;82.80;;;;;;1891305;75;21057;-44
2023/01/12 07:51:56;;;;;;;15.83;9.38;;;-0.30;82.60;;;;;;1872467;77;21033;-45
2023/01/12 07:54:26;;;;;;;15.18;9.75;;;-0.30;82.40;;;;;;1872534;75;21033;-45
2023/01/12 07:56:59;;;;;;;17.17;11.22;;;-0.20;82.60;;;;;;1872954;75;21057;-45
2023/01/12 07:59:28;;;;;;;11.30;6.47;;;-0.20;81.90;;;;;;1872768;75;21452;-42
2023/01/12 08:01:58;;;;;;;16.50;7.97;;;-0.20;82.30;;;;;;1870947;77;22416;-43
2023/01/12 08:04:26;;;;;;;17.85;7.67;;;-0.20;82.20;;;;;;1871708;77;21003;-43
2023/01/12 08:06:56;;;;;;;14.58;8.48;;;-0.20;82.20;;;;;;1872152;76;21040;-42
2023/01/12 08:09:26;;;;;;;22.93;7.90;;;-0.20;82.80;;;;;;1872412;75;21588;-43
2023/01/12 08:11:55;;;;;;;12.75;7.97;;;-0.10;83.10;;;;;;1872041;77;21263;-43
2023/01/12 08:14:32;;;;;;;14.33;9.15;;;0.10;83.10;;;;;;1872169;77;21072;-43
2023/01/12 08:17:03;;;;;;;12.80;6.80;;;0.10;82.20;;;;;;1879887;75;21019;-44
2023/01/12 08:19:43;;;;;;;23.12;8.30;;;0.20;81.90;;;;;;1904623;75;21015;-44
2023/01/12 08:22:17;;;;;;;9.90;7.47;;;0.10;81.90;;;;;;1904564;75;21074;-44
2023/01/12 08:24:49;;;;;;;10.50;7.35;;;0.10;82.40;;;;;;1904613;75;21141;-43
2023/01/12 08:27:21;;;;;;;11.12;7.40;;;0.10;82.30;;;;;;1904643;75;21128;-44
2023/01/12 08:29:52;;;;;;;16.87;8.63;;;0.20;82.10;;;;;;1904205;75;21019;-44
2023/01/12 08:32:22;;;;;;;10.23;6.95;;;0.20;81.40;;;;;;1882703;74;21040;-43
2023/01/12 08:34:54;;;;;;;13.48;7.30;;;0.20;81.20;;;;;;1872071;77;21512;-45
2023/01/12 08:37:24;;;;;;;21.97;8.15;;;0.10;81.40;;;;;;1872188;77;21076;-44
2023/01/12 08:39:53;;;;;;;16.97;8.15;;;0.10;81.90;;;;;;1871923;75;21138;-44
2023/01/12 08:42:26;;;;;;;17.73;7.45;;;0.00;81.60;;;;;;1871875;77;21533;-44
2023/01/12 08:44:56;;;;;;;16.67;9.75;;;0.10;82.60;;;;;;1872567;75;21111;-45
2023/01/12 13:44:39;;;;;;;14.93;9.70;;;2.10;80.80;;;;;;1917715;74;21023;-45
2023/01/12 13:47:11;;;;;;;16.52;9.95;;;2.10;81.00;;;;;;1917817;75;21051;-44
2023/01/12 13:49:49;;;;;;;23.73;11.05;;;2.10;80.80;;;;;;1914111;74;21504;-45
2023/01/12 13:52:23;;;;;;;13.32;8.78;;;2.10;80.70;;;;;;1917716;74;21132;-47
2023/01/12 13:54:52;;;;;;;18.50;11.08;;;2.10;80.90;;;;;;1917011;74;21580;-45
2023/01/12 13:57:24;;;;;;;20.37;11.48;;;2.10;80.80;;;;;;1917800;75;21092;-45
2023/01/12 13:59:58;;;;;;;23.55;13.65;;;2.00;80.80;;;;;;1916674;74;21065;-45
2023/01/12 14:02:32;;;;;;;48.53;29.03;;;2.00;81.00;;;;;;1918001;74;21035;-46
2023/01/12 14:05:21;;;;;;;34.10;18.50;;;1.90;80.60;;;;;;1917800;75;21069;-46
2023/01/12 14:07:53;;;;;;;27.37;16.12;;;1.90;81.40;;;;;;1917799;74;21023;-46
2023/01/12 14:10:33;;;;;;;31.50;17.37;;;1.90;81.50;;;;;;1915977;74;21160;-47
2023/01/12 14:13:25;;;;;;;35.03;17.77;;;1.90;81.50;;;;;;1917434;74;21047;-46
2023/01/12 15:29:31;;;;;;;24.45;13.65;;;;;;;;;;1959041;73;26148;-47
2023/01/12 15:32:00;;;;;;;31.70;14.45;;;;;;;;;;1918362;75;21039;-47
2023/01/12 15:34:29;;;;;;;28.47;16.65;;;;;;;;;;1918449;75;21062;-45
2023/01/12 15:36:57;;;;;;;43.98;18.20;;;;;;;;;;1918293;75;21031;-47
2023/01/12 15:39:26;;;;;;;37.15;17.30;;;;;;;;;;1918399;75;21034;-46
2023/01/12 15:44:42;;;;;;;49.40;16.50;;;;;;;;;;1918409;75;21011;-46
2023/01/12 15:47:14;;;;;;;36.25;14.78;;;;;;;;;;1918362;75;21108;-46
2023/01/12 15:49:44;;;;;;;40.52;14.13;;;;;;;;;;1918368;75;21011;-46
2023/01/12 15:52:13;;;;;;;40.70;15.45;;;;;;;;;;1918384;75;21046;-46
